METAR AND TAF INFORMATION
METAR FOR UASP
ADDS - METARS form results

(2123 UTC 26 March 2019)
Data provider http://aviationweather.gov/metar/data/
 
METAR text: UASP 262100Z 14005MPS CAVOK 02/M01 Q1019 R21/0///60 NOSIG RMK QFE753/1004
Conditions at: UASP (PAVLODAR , KZ) observed 2100 UTC 26 March 2019
Temperature: 2.0°C (36°F)
Dewpoint: -1.0°C (30°F) [RH = 80%]
Pressure (altimeter): 30.09 inches Hg (1019.0 mb)
Winds: from the SE (140 degrees) at 12 MPH (10 knots; 5.1 m/s)
Visibility: 6 or more miles (10+ km)
Ceiling: ceiling and visibility are OK
Clouds: unknown
Weather: no significant weather observed at this time

METAR text: UASP 262030Z 15004MPS CAVOK 01/M01 Q1019 R21/0///60 NOSIG RMK QFE753/1004
Conditions at: UASP (PAVLODAR , KZ) observed 2030 UTC 26 March 2019
Temperature: 1.0°C (34°F)
Dewpoint: -1.0°C (30°F) [RH = 86%]
Pressure (altimeter): 30.09 inches Hg (1019.0 mb)
Winds: from the SSE (150 degrees) at 9 MPH (8 knots; 4.1 m/s)
Visibility: 6 or more miles (10+ km)
Ceiling: ceiling and visibility are OK
Clouds: unknown
Weather: no significant weather observed at this time

Forecast for: UASP (PAVLODAR , KZ)
Text: TAF UASP 262000Z 2621/2706 18005MPS 3100 -SHSNRA BR OVC020CB
Forecast period: 2100 UTC 26 March 2019 to 0600 UTC 27 March 2019
Forecast type: FROM: standard forecast or significant change
Winds: from the S (180 degrees) at 12 MPH (10 knots; 5.1 m/s)
Visibility: 1.93 miles (3.11 km)
Ceiling: 2000 feet AGL
Clouds: overcast cloud deck at 2000 feet AGL
Weather: -SHSN -SHRA BR  (light snow showers, light rain showers, mist)
Text: TEMPO 2621/2624 21009MPS 2100 -SHRA FU BKN006 OVC011CB
Forecast period: 2100 UTC 26 March 2019 to 0000 UTC 27 March 2019
Forecast type: TEMPORARY: The following changes expected for less than half the time period
Winds: from the SSW (210 degrees) at 20 MPH (17 knots; 8.7 m/s)
Visibility: 1.30 miles (2.09 km)
Ceiling: 600 feet AGL
Clouds: broken clouds at 600 feet AGL
overcast cloud deck at 1100 feet AGL
Weather: -SHRA FU  (light rain showers, smoke)
Text: TEMPO 2700/2706 24009MPS 1000 SHRASN FU BKN003 OVC011CB
Forecast period: 0000 to 0600 UTC 27 March 2019
Forecast type: TEMPORARY: The following changes expected for less than half the time period
Winds: from the WSW (240 degrees) at 20 MPH (17 knots; 8.7 m/s)
Visibility: 0.62 miles (1.00 km)
Ceiling: 300 feet AGL
Clouds: broken clouds at 300 feet AGL
overcast cloud deck at 1100 feet AGL
Weather: SHRA SHSN FU  (rain showers, snow showers, smoke)

 AIRPORT MAP

 RUNWAY INFORMATION

 AIRPORT FREQUENCIES
Type TWR Name TWR Frequency 119.8 MHZ

 AIRPORT NEAR NAVIGATION AIDS
Type NDB Name Pavlodar Frequency 440 KHZ
Type NDB Name Pavlodar Frequency 440 KHZ



2018 Air Astana Virtual Airline